sensor_id;sensor_type;location;lat;lon;timestamp;P1;durP1;ratioP1;P2;durP2;ratioP2
60488;SDS011;46331;49.252;8.904;2024-02-26T00:00:31;3.53;;;1.00;;
60488;SDS011;46331;49.252;8.904;2024-02-26T00:01:12;2.95;;;0.73;;
60488;SDS011;46331;49.252;8.904;2024-02-26T00:01:52;4.07;;;1.00;;
60488;SDS011;46331;49.252;8.904;2024-02-26T00:02:33;3.00;;;0.90;;
60488;SDS011;46331;49.252;8.904;2024-02-26T00:03:18;5.30;;;1.10;;
60488;SDS011;46331;49.252;8.904;2024-02-26T00:03:58;3.80;;;0.93;;
60488;SDS011;46331;49.252;8.904;2024-02-26T00:04:40;3.40;;;0.98;;
60488;SDS011;46331;49.252;8.904;2024-02-26T00:05:20;3.72;;;1.10;;
60488;SDS011;46331;49.252;8.904;2024-02-26T00:06:01;3.60;;;0.87;;
60488;SDS011;46331;49.252;8.904;2024-02-26T00:06:42;6.18;;;1.10;;
60488;SDS011;46331;49.252;8.904;2024-02-26T00:07:23;3.30;;;1.00;;
60488;SDS011;46331;49.252;8.904;2024-02-26T00:08:04;4.83;;;1.30;;
60488;SDS011;46331;49.252;8.904;2024-02-26T00:08:45;5.43;;;1.00;;
60488;SDS011;46331;49.252;8.904;2024-02-26T00:09:25;4.13;;;1.10;;
60488;SDS011;46331;49.252;8.904;2024-02-26T00:10:06;4.63;;;0.97;;
60488;SDS011;46331;49.252;8.904;2024-02-26T00:10:47;4.22;;;1.00;;
60488;SDS011;46331;49.252;8.904;2024-02-26T00:11:28;3.53;;;0.90;;
60488;SDS011;46331;49.252;8.904;2024-02-26T00:12:08;3.47;;;1.10;;
60488;SDS011;46331;49.252;8.904;2024-02-26T00:12:49;4.32;;;1.50;;
60488;SDS011;46331;49.252;8.904;2024-02-26T00:13:29;3.03;;;0.90;;
60488;SDS011;46331;49.252;8.904;2024-02-26T00:14:10;3.67;;;1.00;;
60488;SDS011;46331;49.252;8.904;2024-02-26T00:14:51;5.13;;;1.17;;
60488;SDS011;46331;49.252;8.904;2024-02-26T00:15:32;3.40;;;1.00;;
60488;SDS011;46331;49.252;8.904;2024-02-26T00:16:15;4.28;;;1.00;;
60488;SDS011;46331;49.252;8.904;2024-02-26T00:16:56;5.23;;;1.10;;
60488;SDS011;46331;49.252;8.904;2024-02-26T00:17:38;3.55;;;1.00;;
60488;SDS011;46331;49.252;8.904;2024-02-26T00:18:18;4.38;;;0.98;;
60488;SDS011;46331;49.252;8.904;2024-02-26T00:18:59;4.00;;;1.00;;
60488;SDS011;46331;49.252;8.904;2024-02-26T00:19:40;5.05;;;1.02;;
60488;SDS011;46331;49.252;8.904;2024-02-26T00:20:21;3.93;;;1.07;;
60488;SDS011;46331;49.252;8.904;2024-02-26T00:21:02;5.22;;;1.10;;
60488;SDS011;46331;49.252;8.904;2024-02-26T00:21:42;3.05;;;0.77;;
60488;SDS011;46331;49.252;8.904;2024-02-26T00:22:23;3.87;;;1.07;;
60488;SDS011;46331;49.252;8.904;2024-02-26T00:23:04;5.05;;;1.02;;
60488;SDS011;46331;49.252;8.904;2024-02-26T00:23:44;3.60;;;1.00;;
60488;SDS011;46331;49.252;8.904;2024-02-26T00:24:25;3.42;;;0.98;;
60488;SDS011;46331;49.252;8.904;2024-02-26T00:25:05;3.40;;;0.90;;
60488;SDS011;46331;49.252;8.904;2024-02-26T00:25:46;3.45;;;0.90;;
60488;SDS011;46331;49.252;8.904;2024-02-26T00:26:27;3.53;;;0.90;;
60488;SDS011;46331;49.252;8.904;2024-02-26T00:27:08;2.97;;;0.80;;
60488;SDS011;46331;49.252;8.904;2024-02-26T00:27:49;3.83;;;0.90;;
60488;SDS011;46331;49.252;8.904;2024-02-26T00:28:29;4.03;;;1.07;;
60488;SDS011;46331;49.252;8.904;2024-02-26T00:29:10;3.58;;;1.00;;
60488;SDS011;46331;49.252;8.904;2024-02-26T00:29:50;3.50;;;0.80;;
60488;SDS011;46331;49.252;8.904;2024-02-26T00:30:31;3.55;;;0.90;;
60488;SDS011;46331;49.252;8.904;2024-02-26T00:31:11;4.27;;;0.93;;
60488;SDS011;46331;49.252;8.904;2024-02-26T00:31:52;3.70;;;0.80;;
60488;SDS011;46331;49.252;8.904;2024-02-26T00:32:33;6.33;;;0.90;;
60488;SDS011;46331;49.252;8.904;2024-02-26T00:33:16;3.40;;;0.90;;
60488;SDS011;46331;49.252;8.904;2024-02-26T00:33:57;3.33;;;0.95;;
60488;SDS011;46331;49.252;8.904;2024-02-26T00:34:38;3.33;;;1.00;;
60488;SDS011;46331;49.252;8.904;2024-02-26T00:35:18;5.07;;;1.08;;
60488;SDS011;46331;49.252;8.904;2024-02-26T00:36:00;3.53;;;0.80;;
60488;SDS011;46331;49.252;8.904;2024-02-26T00:36:41;7.13;;;1.17;;
60488;SDS011;46331;49.252;8.904;2024-02-26T00:37:21;3.15;;;1.00;;
60488;SDS011;46331;49.252;8.904;2024-02-26T00:38:02;3.30;;;0.90;;
60488;SDS011;46331;49.252;8.904;2024-02-26T00:38:43;3.75;;;0.80;;
60488;SDS011;46331;49.252;8.904;2024-02-26T00:39:25;4.93;;;1.08;;
60488;SDS011;46331;49.252;8.904;2024-02-26T00:40:05;4.13;;;1.20;;
60488;SDS011;46331;49.252;8.904;2024-02-26T00:40:47;3.17;;;0.75;;
60488;SDS011;46331;49.252;8.904;2024-02-26T00:41:27;3.53;;;0.90;;
60488;SDS011;46331;49.252;8.904;2024-02-26T00:42:08;4.87;;;1.13;;
60488;SDS011;46331;49.252;8.904;2024-02-26T00:42:49;3.75;;;0.90;;
60488;SDS011;46331;49.252;8.904;2024-02-26T00:43:30;3.30;;;0.88;;
60488;SDS011;46331;49.252;8.904;2024-02-26T00:44:10;3.50;;;0.90;;
60488;SDS011;46331;49.252;8.904;2024-02-26T00:44:51;3.38;;;1.00;;
60488;SDS011;46331;49.252;8.904;2024-02-26T00:45:32;3.90;;;0.90;;
60488;SDS011;46331;49.252;8.904;2024-02-26T00:46:13;3.63;;;0.90;;
60488;SDS011;46331;49.252;8.904;2024-02-26T00:46:53;3.00;;;0.90;;
60488;SDS011;46331;49.252;8.904;2024-02-26T00:47:34;3.73;;;1.00;;
60488;SDS011;46331;49.252;8.904;2024-02-26T00:48:14;4.47;;;1.00;;
60488;SDS011;46331;49.252;8.904;2024-02-26T00:48:55;3.30;;;0.82;;
60488;SDS011;46331;49.252;8.904;2024-02-26T00:49:36;3.30;;;1.00;;
60488;SDS011;46331;49.252;8.904;2024-02-26T00:50:17;3.80;;;1.00;;
60488;SDS011;46331;49.252;8.904;2024-02-26T00:50:58;3.77;;;1.00;;
60488;SDS011;46331;49.252;8.904;2024-02-26T00:51:38;4.13;;;1.00;;
60488;SDS011;46331;49.252;8.904;2024-02-26T00:52:19;2.97;;;0.80;;
60488;SDS011;46331;49.252;8.904;2024-02-26T00:53:02;5.05;;;1.00;;
60488;SDS011;46331;49.252;8.904;2024-02-26T00:53:43;3.90;;;1.00;;
60488;SDS011;46331;49.252;8.904;2024-02-26T00:54:23;3.80;;;1.03;;
60488;SDS011;46331;49.252;8.904;2024-02-26T00:55:04;3.25;;;0.90;;
60488;SDS011;46331;49.252;8.904;2024-02-26T00:55:46;3.50;;;0.90;;
60488;SDS011;46331;49.252;8.904;2024-02-26T00:56:26;3.53;;;0.97;;
60488;SDS011;46331;49.252;8.904;2024-02-26T00:57:07;3.00;;;0.70;;
60488;SDS011;46331;49.252;8.904;2024-02-26T00:57:48;3.10;;;0.80;;
60488;SDS011;46331;49.252;8.904;2024-02-26T00:58:28;3.00;;;0.70;;
60488;SDS011;46331;49.252;8.904;2024-02-26T00:59:09;3.47;;;0.90;;
60488;SDS011;46331;49.252;8.904;2024-02-26T00:59:49;4.03;;;0.70;;
60488;SDS011;46331;49.252;8.904;2024-02-26T01:00:30;4.13;;;0.88;;
60488;SDS011;46331;49.252;8.904;2024-02-26T01:01:11;3.70;;;1.00;;
60488;SDS011;46331;49.252;8.904;2024-02-26T01:01:51;3.27;;;1.00;;
60488;SDS011;46331;49.252;8.904;2024-02-26T01:02:32;2.78;;;0.80;;
60488;SDS011;46331;49.252;8.904;2024-02-26T01:03:13;3.57;;;0.87;;
60488;SDS011;46331;49.252;8.904;2024-02-26T01:03:53;3.73;;;1.17;;
60488;SDS011;46331;49.252;8.904;2024-02-26T01:04:34;3.45;;;0.90;;
60488;SDS011;46331;49.252;8.904;2024-02-26T01:05:14;3.00;;;0.80;;
60488;SDS011;46331;49.252;8.904;2024-02-26T01:05:56;4.03;;;1.20;;
60488;SDS011;46331;49.252;8.904;2024-02-26T01:06:37;3.13;;;0.90;;
60488;SDS011;46331;49.252;8.904;2024-02-26T01:07:18;4.22;;;1.05;;
60488;SDS011;46331;49.252;8.904;2024-02-26T01:07:59;4.22;;;1.08;;
60488;SDS011;46331;49.252;8.904;2024-02-26T01:08:39;3.30;;;0.90;;
60488;SDS011;46331;49.252;8.904;2024-02-26T01:09:20;5.72;;;1.05;;
60488;SDS011;46331;49.252;8.904;2024-02-26T01:10:01;3.53;;;1.00;;
60488;SDS011;46331;49.252;8.904;2024-02-26T01:10:43;3.35;;;1.02;;
60488;SDS011;46331;49.252;8.904;2024-02-26T01:11:23;3.00;;;0.90;;
60488;SDS011;46331;49.252;8.904;2024-02-26T01:12:04;3.80;;;0.90;;
60488;SDS011;46331;49.252;8.904;2024-02-26T01:12:45;3.97;;;1.00;;
60488;SDS011;46331;49.252;8.904;2024-02-26T01:13:25;3.70;;;0.90;;
60488;SDS011;46331;49.252;8.904;2024-02-26T01:14:06;3.65;;;1.00;;
60488;SDS011;46331;49.252;8.904;2024-02-26T01:14:46;4.07;;;1.17;;
60488;SDS011;46331;49.252;8.904;2024-02-26T01:15:27;6.47;;;1.95;;
60488;SDS011;46331;49.252;8.904;2024-02-26T01:16:08;5.37;;;1.40;;
60488;SDS011;46331;49.252;8.904;2024-02-26T01:16:48;5.47;;;1.50;;
60488;SDS011;46331;49.252;8.904;2024-02-26T01:17:29;4.67;;;1.30;;
60488;SDS011;46331;49.252;8.904;2024-02-26T01:18:10;4.40;;;1.27;;
60488;SDS011;46331;49.252;8.904;2024-02-26T01:18:52;4.40;;;1.25;;
60488;SDS011;46331;49.252;8.904;2024-02-26T01:19:32;6.57;;;1.50;;
60488;SDS011;46331;49.252;8.904;2024-02-26T01:20:13;4.73;;;1.37;;
60488;SDS011;46331;49.252;8.904;2024-02-26T01:20:53;5.30;;;1.40;;
60488;SDS011;46331;49.252;8.904;2024-02-26T01:21:34;5.00;;;1.30;;
60488;SDS011;46331;49.252;8.904;2024-02-26T01:22:15;4.80;;;1.42;;
60488;SDS011;46331;49.252;8.904;2024-02-26T01:22:55;4.67;;;1.50;;
60488;SDS011;46331;49.252;8.904;2024-02-26T01:23:36;5.90;;;1.83;;
60488;SDS011;46331;49.252;8.904;2024-02-26T01:24:17;5.20;;;1.70;;
60488;SDS011;46331;49.252;8.904;2024-02-26T01:24:57;5.97;;;1.93;;
60488;SDS011;46331;49.252;8.904;2024-02-26T01:25:38;5.82;;;1.83;;
60488;SDS011;46331;49.252;8.904;2024-02-26T01:26:19;7.15;;;1.60;;
60488;SDS011;46331;49.252;8.904;2024-02-26T01:27:00;4.68;;;1.60;;
60488;SDS011;46331;49.252;8.904;2024-02-26T01:27:40;5.67;;;1.53;;
60488;SDS011;46331;49.252;8.904;2024-02-26T01:28:22;4.78;;;1.55;;
60488;SDS011;46331;49.252;8.904;2024-02-26T01:29:03;5.25;;;1.40;;
60488;SDS011;46331;49.252;8.904;2024-02-26T01:29:44;4.70;;;1.40;;
60488;SDS011;46331;49.252;8.904;2024-02-26T01:30:25;4.80;;;1.48;;
60488;SDS011;46331;49.252;8.904;2024-02-26T01:31:06;4.90;;;1.50;;
60488;SDS011;46331;49.252;8.904;2024-02-26T01:31:48;5.55;;;1.80;;
60488;SDS011;46331;49.252;8.904;2024-02-26T01:32:29;4.53;;;1.23;;
60488;SDS011;46331;49.252;8.904;2024-02-26T01:33:10;5.68;;;2.13;;
60488;SDS011;46331;49.252;8.904;2024-02-26T01:33:50;4.03;;;1.20;;
60488;SDS011;46331;49.252;8.904;2024-02-26T01:34:31;4.30;;;1.40;;
60488;SDS011;46331;49.252;8.904;2024-02-26T01:35:12;5.20;;;1.40;;
60488;SDS011;46331;49.252;8.904;2024-02-26T01:35:52;4.60;;;1.43;;
60488;SDS011;46331;49.252;8.904;2024-02-26T01:36:33;5.00;;;1.33;;
60488;SDS011;46331;49.252;8.904;2024-02-26T01:37:14;5.57;;;1.45;;
60488;SDS011;46331;49.252;8.904;2024-02-26T01:37:55;4.93;;;1.67;;
60488;SDS011;46331;49.252;8.904;2024-02-26T01:38:36;4.70;;;1.10;;
60488;SDS011;46331;49.252;8.904;2024-02-26T01:39:16;6.23;;;1.43;;
60488;SDS011;46331;49.252;8.904;2024-02-26T01:39:57;3.88;;;1.30;;
60488;SDS011;46331;49.252;8.904;2024-02-26T01:40:38;4.20;;;1.23;;
60488;SDS011;46331;49.252;8.904;2024-02-26T01:41:18;4.18;;;1.27;;
60488;SDS011;46331;49.252;8.904;2024-02-26T01:41:59;4.40;;;1.35;;
60488;SDS011;46331;49.252;8.904;2024-02-26T01:42:40;3.50;;;1.00;;
60488;SDS011;46331;49.252;8.904;2024-02-26T01:43:21;4.45;;;1.33;;
60488;SDS011;46331;49.252;8.904;2024-02-26T01:44:02;4.18;;;1.10;;
60488;SDS011;46331;49.252;8.904;2024-02-26T01:44:43;4.93;;;1.33;;
60488;SDS011;46331;49.252;8.904;2024-02-26T01:45:23;5.68;;;1.55;;
60488;SDS011;46331;49.252;8.904;2024-02-26T01:46:05;5.25;;;1.40;;
60488;SDS011;46331;49.252;8.904;2024-02-26T01:46:46;4.97;;;1.60;;
60488;SDS011;46331;49.252;8.904;2024-02-26T01:47:28;5.20;;;1.60;;
60488;SDS011;46331;49.252;8.904;2024-02-26T01:48:09;7.43;;;1.90;;
60488;SDS011;46331;49.252;8.904;2024-02-26T01:48:50;5.90;;;1.60;;
60488;SDS011;46331;49.252;8.904;2024-02-26T01:49:31;6.27;;;1.90;;
60488;SDS011;46331;49.252;8.904;2024-02-26T01:50:12;7.72;;;2.20;;
60488;SDS011;46331;49.252;8.904;2024-02-26T01:50:52;5.93;;;1.90;;
60488;SDS011;46331;49.252;8.904;2024-02-26T01:51:33;5.20;;;1.55;;
60488;SDS011;46331;49.252;8.904;2024-02-26T01:52:15;5.68;;;1.65;;
60488;SDS011;46331;49.252;8.904;2024-02-26T01:52:57;4.78;;;1.30;;
60488;SDS011;46331;49.252;8.904;2024-02-26T01:53:38;6.25;;;1.70;;
60488;SDS011;46331;49.252;8.904;2024-02-26T01:54:18;5.97;;;1.70;;
60488;SDS011;46331;49.252;8.904;2024-02-26T01:54:59;5.90;;;1.65;;
60488;SDS011;46331;49.252;8.904;2024-02-26T01:55:41;5.90;;;2.05;;
60488;SDS011;46331;49.252;8.904;2024-02-26T01:56:22;5.13;;;1.73;;
60488;SDS011;46331;49.252;8.904;2024-02-26T01:57:03;5.35;;;1.40;;
60488;SDS011;46331;49.252;8.904;2024-02-26T01:57:45;6.50;;;1.70;;
60488;SDS011;46331;49.252;8.904;2024-02-26T01:58:28;5.95;;;1.77;;
60488;SDS011;46331;49.252;8.904;2024-02-26T01:59:10;7.38;;;1.98;;
60488;SDS011;46331;49.252;8.904;2024-02-26T01:59:51;6.77;;;2.37;;
60488;SDS011;46331;49.252;8.904;2024-02-26T02:00:32;6.93;;;1.83;;
60488;SDS011;46331;49.252;8.904;2024-02-26T02:01:12;6.07;;;1.90;;
60488;SDS011;46331;49.252;8.904;2024-02-26T02:01:57;6.45;;;1.85;;
60488;SDS011;46331;49.252;8.904;2024-02-26T02:02:39;4.50;;;1.42;;
60488;SDS011;46331;49.252;8.904;2024-02-26T02:03:22;5.25;;;1.73;;
60488;SDS011;46331;49.252;8.904;2024-02-26T02:04:04;6.10;;;1.80;;
60488;SDS011;46331;49.252;8.904;2024-02-26T02:04:45;4.97;;;1.60;;
60488;SDS011;46331;49.252;8.904;2024-02-26T02:05:25;3.73;;;1.20;;
60488;SDS011;46331;49.252;8.904;2024-02-26T02:06:06;3.92;;;1.33;;
60488;SDS011;46331;49.252;8.904;2024-02-26T02:06:47;4.47;;;1.40;;
60488;SDS011;46331;49.252;8.904;2024-02-26T02:07:29;5.10;;;1.58;;
60488;SDS011;46331;49.252;8.904;2024-02-26T02:08:10;3.97;;;1.08;;
60488;SDS011;46331;49.252;8.904;2024-02-26T02:08:54;4.65;;;1.10;;
60488;SDS011;46331;49.252;8.904;2024-02-26T02:09:35;3.77;;;1.10;;
60488;SDS011;46331;49.252;8.904;2024-02-26T02:10:16;3.08;;;1.00;;
60488;SDS011;46331;49.252;8.904;2024-02-26T02:10:58;5.32;;;1.17;;
60488;SDS011;46331;49.252;8.904;2024-02-26T02:11:39;5.13;;;1.08;;
60488;SDS011;46331;49.252;8.904;2024-02-26T02:12:20;3.80;;;1.00;;
60488;SDS011;46331;49.252;8.904;2024-02-26T02:13:01;3.75;;;0.80;;
60488;SDS011;46331;49.252;8.904;2024-02-26T02:13:42;6.40;;;0.90;;
60488;SDS011;46331;49.252;8.904;2024-02-26T02:14:23;4.70;;;1.10;;
60488;SDS011;46331;49.252;8.904;2024-02-26T02:15:05;4.00;;;1.10;;
60488;SDS011;46331;49.252;8.904;2024-02-26T02:15:46;3.83;;;1.10;;
60488;SDS011;46331;49.252;8.904;2024-02-26T02:16:27;3.83;;;0.90;;
60488;SDS011;46331;49.252;8.904;2024-02-26T02:17:07;5.23;;;1.40;;
60488;SDS011;46331;49.252;8.904;2024-02-26T02:17:48;4.47;;;1.05;;
60488;SDS011;46331;49.252;8.904;2024-02-26T02:18:29;4.60;;;1.40;;
60488;SDS011;46331;49.252;8.904;2024-02-26T02:19:09;4.95;;;1.30;;
60488;SDS011;46331;49.252;8.904;2024-02-26T02:19:50;6.07;;;1.40;;
60488;SDS011;46331;49.252;8.904;2024-02-26T02:20:33;6.68;;;1.60;;
60488;SDS011;46331;49.252;8.904;2024-02-26T02:21:15;4.57;;;1.30;;
60488;SDS011;46331;49.252;8.904;2024-02-26T02:21:55;7.27;;;1.13;;
60488;SDS011;46331;49.252;8.904;2024-02-26T02:22:36;6.50;;;1.43;;
60488;SDS011;46331;49.252;8.904;2024-02-26T02:23:16;5.07;;;1.27;;
60488;SDS011;46331;49.252;8.904;2024-02-26T02:23:57;4.73;;;1.40;;
60488;SDS011;46331;49.252;8.904;2024-02-26T02:24:37;6.57;;;1.60;;
60488;SDS011;46331;49.252;8.904;2024-02-26T02:25:18;5.80;;;1.30;;
60488;SDS011;46331;49.252;8.904;2024-02-26T02:25:59;5.80;;;1.42;;
60488;SDS011;46331;49.252;8.904;2024-02-26T02:26:39;7.97;;;1.50;;
60488;SDS011;46331;49.252;8.904;2024-02-26T02:27:20;4.60;;;1.13;;
60488;SDS011;46331;49.252;8.904;2024-02-26T02:28:01;5.15;;;1.20;;
60488;SDS011;46331;49.252;8.904;2024-02-26T02:28:42;3.88;;;1.13;;
60488;SDS011;46331;49.252;8.904;2024-02-26T02:29:22;4.43;;;1.00;;
60488;SDS011;46331;49.252;8.904;2024-02-26T02:30:03;6.78;;;1.10;;
60488;SDS011;46331;49.252;8.904;2024-02-26T02:30:45;3.83;;;1.05;;
60488;SDS011;46331;49.252;8.904;2024-02-26T02:31:25;3.87;;;0.93;;
60488;SDS011;46331;49.252;8.904;2024-02-26T02:32:06;3.10;;;0.80;;
60488;SDS011;46331;49.252;8.904;2024-02-26T02:32:47;3.05;;;0.75;;
60488;SDS011;46331;49.252;8.904;2024-02-26T02:33:28;3.50;;;0.93;;
60488;SDS011;46331;49.252;8.904;2024-02-26T02:34:09;3.03;;;0.70;;
60488;SDS011;46331;49.252;8.904;2024-02-26T02:34:50;3.20;;;0.80;;
60488;SDS011;46331;49.252;8.904;2024-02-26T02:35:30;3.87;;;1.03;;
60488;SDS011;46331;49.252;8.904;2024-02-26T02:36:11;3.90;;;1.10;;
60488;SDS011;46331;49.252;8.904;2024-02-26T02:36:52;4.45;;;1.30;;
60488;SDS011;46331;49.252;8.904;2024-02-26T02:37:33;4.30;;;1.25;;
60488;SDS011;46331;49.252;8.904;2024-02-26T02:38:14;5.03;;;1.45;;
60488;SDS011;46331;49.252;8.904;2024-02-26T02:38:54;4.33;;;1.07;;
60488;SDS011;46331;49.252;8.904;2024-02-26T02:39:35;4.90;;;1.30;;
60488;SDS011;46331;49.252;8.904;2024-02-26T02:40:15;4.10;;;1.20;;
60488;SDS011;46331;49.252;8.904;2024-02-26T02:40:56;6.18;;;1.50;;
60488;SDS011;46331;49.252;8.904;2024-02-26T02:41:36;4.37;;;1.30;;
60488;SDS011;46331;49.252;8.904;2024-02-26T02:42:17;4.25;;;1.20;;
60488;SDS011;46331;49.252;8.904;2024-02-26T02:42:57;3.97;;;0.93;;
60488;SDS011;46331;49.252;8.904;2024-02-26T02:43:39;4.53;;;1.10;;
60488;SDS011;46331;49.252;8.904;2024-02-26T02:44:19;4.67;;;1.17;;
60488;SDS011;46331;49.252;8.904;2024-02-26T02:45:00;4.00;;;1.10;;
60488;SDS011;46331;49.252;8.904;2024-02-26T02:45:40;3.67;;;1.20;;
60488;SDS011;46331;49.252;8.904;2024-02-26T02:46:21;3.20;;;0.85;;
60488;SDS011;46331;49.252;8.904;2024-02-26T02:47:01;4.27;;;1.20;;
60488;SDS011;46331;49.252;8.904;2024-02-26T02:47:42;7.10;;;1.10;;
60488;SDS011;46331;49.252;8.904;2024-02-26T02:48:22;3.63;;;0.90;;
60488;SDS011;46331;49.252;8.904;2024-02-26T02:49:03;3.53;;;1.00;;
60488;SDS011;46331;49.252;8.904;2024-02-26T02:49:43;3.95;;;1.25;;
60488;SDS011;46331;49.252;8.904;2024-02-26T02:50:24;3.80;;;1.10;;
60488;SDS011;46331;49.252;8.904;2024-02-26T02:51:04;4.47;;;0.95;;
60488;SDS011;46331;49.252;8.904;2024-02-26T02:51:45;3.97;;;1.20;;
60488;SDS011;46331;49.252;8.904;2024-02-26T02:52:26;3.50;;;0.90;;
60488;SDS011;46331;49.252;8.904;2024-02-26T02:53:06;6.60;;;1.07;;
60488;SDS011;46331;49.252;8.904;2024-02-26T02:53:47;4.07;;;1.27;;
60488;SDS011;46331;49.252;8.904;2024-02-26T02:54:27;3.42;;;0.90;;
60488;SDS011;46331;49.252;8.904;2024-02-26T02:55:08;4.30;;;1.30;;
60488;SDS011;46331;49.252;8.904;2024-02-26T02:55:49;4.13;;;1.15;;
60488;SDS011;46331;49.252;8.904;2024-02-26T02:56:29;4.30;;;1.20;;
60488;SDS011;46331;49.252;8.904;2024-02-26T02:57:10;3.27;;;0.90;;
60488;SDS011;46331;49.252;8.904;2024-02-26T02:57:50;4.72;;;1.27;;
60488;SDS011;46331;49.252;8.904;2024-02-26T02:58:31;5.27;;;1.17;;
60488;SDS011;46331;49.252;8.904;2024-02-26T02:59:12;5.10;;;1.80;;
60488;SDS011;46331;49.252;8.904;2024-02-26T02:59:53;5.17;;;1.20;;
60488;SDS011;46331;49.252;8.904;2024-02-26T03:00:33;5.60;;;1.60;;
60488;SDS011;46331;49.252;8.904;2024-02-26T03:01:14;5.00;;;1.40;;
60488;SDS011;46331;49.252;8.904;2024-02-26T03:01:54;6.22;;;1.70;;
60488;SDS011;46331;49.252;8.904;2024-02-26T03:02:35;4.67;;;1.27;;
60488;SDS011;46331;49.252;8.904;2024-02-26T03:03:18;4.47;;;1.35;;
60488;SDS011;46331;49.252;8.904;2024-02-26T03:03:59;4.17;;;1.40;;
60488;SDS011;46331;49.252;8.904;2024-02-26T03:04:39;7.72;;;1.70;;
60488;SDS011;46331;49.252;8.904;2024-02-26T03:05:20;4.70;;;1.60;;
60488;SDS011;46331;49.252;8.904;2024-02-26T03:06:01;4.35;;;1.35;;
60488;SDS011;46331;49.252;8.904;2024-02-26T03:06:41;5.37;;;1.20;;
60488;SDS011;46331;49.252;8.904;2024-02-26T03:07:22;5.00;;;1.30;;
60488;SDS011;46331;49.252;8.904;2024-02-26T03:08:02;4.53;;;1.00;;
60488;SDS011;46331;49.252;8.904;2024-02-26T03:08:44;4.40;;;1.17;;
60488;SDS011;46331;49.252;8.904;2024-02-26T03:09:26;4.00;;;1.08;;
60488;SDS011;46331;49.252;8.904;2024-02-26T03:10:07;4.53;;;1.17;;
60488;SDS011;46331;49.252;8.904;2024-02-26T03:10:48;4.63;;;1.02;;
60488;SDS011;46331;49.252;8.904;2024-02-26T03:11:28;4.85;;;1.40;;
60488;SDS011;46331;49.252;8.904;2024-02-26T03:12:09;2.90;;;0.80;;
60488;SDS011;46331;49.252;8.904;2024-02-26T03:12:50;3.83;;;1.00;;
60488;SDS011;46331;49.252;8.904;2024-02-26T03:13:30;3.90;;;0.93;;
60488;SDS011;46331;49.252;8.904;2024-02-26T03:14:11;4.85;;;1.00;;
60488;SDS011;46331;49.252;8.904;2024-02-26T03:14:51;3.27;;;0.90;;
60488;SDS011;46331;49.252;8.904;2024-02-26T03:15:34;4.63;;;0.95;;
60488;SDS011;46331;49.252;8.904;2024-02-26T03:16:16;4.07;;;1.08;;
60488;SDS011;46331;49.252;8.904;2024-02-26T03:16:57;3.60;;;0.90;;
60488;SDS011;46331;49.252;8.904;2024-02-26T03:17:38;3.23;;;1.07;;
60488;SDS011;46331;49.252;8.904;2024-02-26T03:18:18;3.95;;;1.10;;
60488;SDS011;46331;49.252;8.904;2024-02-26T03:18:59;4.77;;;1.03;;
60488;SDS011;46331;49.252;8.904;2024-02-26T03:19:39;4.28;;;1.00;;
60488;SDS011;46331;49.252;8.904;2024-02-26T03:20:20;5.37;;;1.10;;
60488;SDS011;46331;49.252;8.904;2024-02-26T03:21:00;3.70;;;1.00;;
60488;SDS011;46331;49.252;8.904;2024-02-26T03:21:41;3.83;;;0.98;;
60488;SDS011;46331;49.252;8.904;2024-02-26T03:22:21;3.50;;;0.90;;
60488;SDS011;46331;49.252;8.904;2024-02-26T03:23:02;4.40;;;1.00;;
60488;SDS011;46331;49.252;8.904;2024-02-26T03:23:43;4.40;;;1.08;;
60488;SDS011;46331;49.252;8.904;2024-02-26T03:24:24;3.50;;;0.90;;
60488;SDS011;46331;49.252;8.904;2024-02-26T03:25:05;4.82;;;1.23;;
60488;SDS011;46331;49.252;8.904;2024-02-26T03:25:46;3.55;;;0.93;;
60488;SDS011;46331;49.252;8.904;2024-02-26T03:26:28;3.58;;;1.10;;
60488;SDS011;46331;49.252;8.904;2024-02-26T03:27:08;2.95;;;0.90;;
60488;SDS011;46331;49.252;8.904;2024-02-26T03:27:49;5.10;;;1.10;;
60488;SDS011;46331;49.252;8.904;2024-02-26T03:28:30;3.65;;;0.93;;
60488;SDS011;46331;49.252;8.904;2024-02-26T03:29:13;3.72;;;1.10;;
60488;SDS011;46331;49.252;8.904;2024-02-26T03:29:54;2.72;;;0.88;;
60488;SDS011;46331;49.252;8.904;2024-02-26T03:30:34;3.63;;;1.10;;
60488;SDS011;46331;49.252;8.904;2024-02-26T03:31:15;4.15;;;1.10;;
60488;SDS011;46331;49.252;8.904;2024-02-26T03:31:55;3.67;;;0.97;;
60488;SDS011;46331;49.252;8.904;2024-02-26T03:32:36;3.35;;;1.10;;
60488;SDS011;46331;49.252;8.904;2024-02-26T03:33:17;5.50;;;1.20;;
60488;SDS011;46331;49.252;8.904;2024-02-26T03:33:57;4.50;;;1.17;;
60488;SDS011;46331;49.252;8.904;2024-02-26T03:34:38;5.73;;;1.47;;
60488;SDS011;46331;49.252;8.904;2024-02-26T03:35:20;4.25;;;1.27;;
60488;SDS011;46331;49.252;8.904;2024-02-26T03:36:00;4.28;;;1.08;;
60488;SDS011;46331;49.252;8.904;2024-02-26T03:36:41;4.60;;;1.10;;
60488;SDS011;46331;49.252;8.904;2024-02-26T03:37:22;4.13;;;1.25;;
60488;SDS011;46331;49.252;8.904;2024-02-26T03:38:02;4.60;;;1.10;;
60488;SDS011;46331;49.252;8.904;2024-02-26T03:38:43;3.60;;;1.02;;
60488;SDS011;46331;49.252;8.904;2024-02-26T03:39:24;4.63;;;1.30;;
60488;SDS011;46331;49.252;8.904;2024-02-26T03:40:04;4.30;;;1.10;;
60488;SDS011;46331;49.252;8.904;2024-02-26T03:40:46;4.15;;;1.13;;
60488;SDS011;46331;49.252;8.904;2024-02-26T03:41:26;3.50;;;1.10;;
60488;SDS011;46331;49.252;8.904;2024-02-26T03:42:07;3.70;;;1.00;;
60488;SDS011;46331;49.252;8.904;2024-02-26T03:42:47;3.70;;;1.07;;
60488;SDS011;46331;49.252;8.904;2024-02-26T03:43:28;3.17;;;1.00;;
60488;SDS011;46331;49.252;8.904;2024-02-26T03:44:09;3.07;;;0.93;;
60488;SDS011;46331;49.252;8.904;2024-02-26T03:44:50;3.85;;;1.15;;
60488;SDS011;46331;49.252;8.904;2024-02-26T03:45:30;4.20;;;1.40;;
60488;SDS011;46331;49.252;8.904;2024-02-26T03:46:11;4.50;;;1.25;;
60488;SDS011;46331;49.252;8.904;2024-02-26T03:46:53;4.03;;;1.30;;
60488;SDS011;46331;49.252;8.904;2024-02-26T03:47:34;4.18;;;1.20;;
60488;SDS011;46331;49.252;8.904;2024-02-26T03:48:15;4.72;;;1.20;;
60488;SDS011;46331;49.252;8.904;2024-02-26T03:48:55;5.07;;;1.87;;
60488;SDS011;46331;49.252;8.904;2024-02-26T03:49:36;4.95;;;1.80;;
60488;SDS011;46331;49.252;8.904;2024-02-26T03:50:16;5.03;;;1.57;;
60488;SDS011;46331;49.252;8.904;2024-02-26T03:50:57;6.47;;;1.50;;
60488;SDS011;46331;49.252;8.904;2024-02-26T03:51:37;4.68;;;1.60;;
60488;SDS011;46331;49.252;8.904;2024-02-26T03:52:18;4.00;;;1.30;;
60488;SDS011;46331;49.252;8.904;2024-02-26T03:52:58;5.75;;;1.60;;
60488;SDS011;46331;49.252;8.904;2024-02-26T03:53:40;4.20;;;1.40;;
60488;SDS011;46331;49.252;8.904;2024-02-26T03:54:20;4.83;;;1.40;;
60488;SDS011;46331;49.252;8.904;2024-02-26T03:55:01;4.78;;;1.67;;
60488;SDS011;46331;49.252;8.904;2024-02-26T03:55:41;5.45;;;1.10;;
60488;SDS011;46331;49.252;8.904;2024-02-26T03:56:22;4.25;;;1.25;;
60488;SDS011;46331;49.252;8.904;2024-02-26T03:57:03;4.50;;;1.13;;
60488;SDS011;46331;49.252;8.904;2024-02-26T03:57:44;4.55;;;1.17;;
60488;SDS011;46331;49.252;8.904;2024-02-26T03:58:25;5.00;;;1.38;;
60488;SDS011;46331;49.252;8.904;2024-02-26T03:59:05;3.63;;;1.10;;
60488;SDS011;46331;49.252;8.904;2024-02-26T03:59:46;4.00;;;1.30;;
60488;SDS011;46331;49.252;8.904;2024-02-26T04:00:26;7.33;;;1.23;;
60488;SDS011;46331;49.252;8.904;2024-02-26T04:01:10;3.95;;;1.23;;
60488;SDS011;46331;49.252;8.904;2024-02-26T04:01:51;4.43;;;1.30;;
60488;SDS011;46331;49.252;8.904;2024-02-26T04:02:32;4.00;;;1.40;;
60488;SDS011;46331;49.252;8.904;2024-02-26T04:03:13;5.80;;;1.23;;
60488;SDS011;46331;49.252;8.904;2024-02-26T04:03:54;3.40;;;0.90;;
60488;SDS011;46331;49.252;8.904;2024-02-26T04:04:34;3.97;;;0.60;;
60488;SDS011;46331;49.252;8.904;2024-02-26T04:05:15;2.90;;;0.77;;
60488;SDS011;46331;49.252;8.904;2024-02-26T04:05:56;3.22;;;0.60;;
60488;SDS011;46331;49.252;8.904;2024-02-26T04:06:36;3.57;;;0.53;;